createdAt,value
2023-05-14T00:02:06.276Z,101954.31
2023-05-14T00:04:33.125Z,101913.03
2023-05-14T00:06:59.845Z,101954.66
2023-05-14T00:09:26.911Z,101970.16
2023-05-14T00:12:06.869Z,101930.53
2023-05-14T00:14:33.507Z,101968.94
2023-05-14T00:17:00.186Z,101941.47
2023-05-14T00:19:27.126Z,101955.38
2023-05-14T00:21:53.739Z,101958.97
2023-05-14T00:24:20.335Z,101954.03
2023-05-14T00:26:47.028Z,101924.88
2023-05-14T00:29:13.623Z,101907.25
2023-05-14T00:31:40.204Z,101878.03
2023-05-14T00:34:06.843Z,101925.72
2023-05-14T00:36:33.516Z,101944.91
2023-05-14T00:39:00.207Z,101871.91
2023-05-14T00:41:26.866Z,101936.53
2023-05-14T00:43:53.507Z,101945.88
2023-05-14T00:46:20.126Z,101945.63
2023-05-14T00:48:47.092Z,101942.09
2023-05-14T00:53:47.321Z,101959.53
2023-05-14T00:56:15.585Z,101904.25
2023-05-14T00:58:45.003Z,101949.59
2023-05-14T01:03:47.330Z,101983.69
2023-05-14T01:06:25.850Z,101968.66
2023-05-14T01:08:58.557Z,101974.44
2023-05-14T01:11:40.034Z,101967.19
2023-05-14T01:14:12.669Z,101965.66
2023-05-14T01:16:40.571Z,101953.34
2023-05-14T01:19:21.375Z,101976.38
2023-05-14T01:21:47.971Z,101933.44
2023-05-14T01:24:14.523Z,101976.06
2023-05-14T01:26:41.239Z,101968.00
2023-05-14T01:29:21.606Z,101972.72
2023-05-14T01:31:50.906Z,101934.69
2023-05-14T01:34:21.306Z,101971.56
2023-05-14T01:36:50.032Z,101972.22
2023-05-14T01:39:17.699Z,101933.66
2023-05-14T01:41:45.177Z,101968.28
2023-05-14T01:44:12.356Z,101925.78
2023-05-14T01:46:39.232Z,101961.50
2023-05-14T01:49:05.875Z,101934.75
2023-05-14T01:51:32.619Z,101951.44
2023-05-14T01:53:59.237Z,101947.47
2023-05-14T01:56:25.905Z,101894.19
2023-05-14T01:58:52.787Z,101945.34
2023-05-14T02:01:19.391Z,101893.16
2023-05-14T02:03:46.116Z,101930.31
2023-05-14T02:06:12.816Z,101925.25
2023-05-14T02:08:39.489Z,101880.19
2023-05-14T02:11:06.183Z,101900.88
2023-05-14T02:13:32.844Z,101903.91
2023-05-14T02:15:59.466Z,101901.66
2023-05-14T02:18:26.074Z,101937.63
2023-05-14T02:20:52.743Z,101945.44
2023-05-14T02:23:20.622Z,101956.75
2023-05-14T02:25:52.284Z,101964.41
2023-05-14T02:28:18.862Z,101902.56
2023-05-14T02:30:45.497Z,101916.34
2023-05-14T02:33:12.205Z,101928.16
2023-05-14T02:35:38.805Z,101956.91
2023-05-14T02:38:06.050Z,101928.81
2023-05-14T02:40:32.676Z,101886.97
2023-05-14T02:42:59.296Z,101892.59
2023-05-14T02:45:26.109Z,101927.53
2023-05-14T02:47:52.755Z,101935.72
2023-05-14T02:50:19.376Z,101938.25
2023-05-14T02:52:45.982Z,101934.38
2023-05-14T02:55:12.697Z,101933.56
2023-05-14T02:57:39.246Z,101937.28
2023-05-14T03:00:06.843Z,101936.72
2023-05-14T03:02:34.925Z,101935.25
2023-05-14T03:05:02.390Z,101939.25
2023-05-14T03:07:28.939Z,101931.47
2023-05-14T03:09:55.591Z,101924.38
2023-05-14T03:12:22.306Z,101936.56
2023-05-14T03:14:48.843Z,101918.94
2023-05-14T03:17:15.444Z,101897.53
2023-05-14T03:19:42.043Z,101937.75
2023-05-14T03:22:08.791Z,101902.72
2023-05-14T03:24:35.402Z,101939.38
2023-05-14T03:27:02.052Z,101925.78
2023-05-14T03:29:28.708Z,101945.97
2023-05-14T03:31:55.236Z,101952.28
2023-05-14T03:34:22.106Z,101897.13
2023-05-14T03:36:48.687Z,101952.28
2023-05-14T03:39:19.747Z,101954.53
2023-05-14T03:41:46.953Z,101946.31
2023-05-14T03:44:13.926Z,101956.03
2023-05-14T03:46:40.640Z,101932.72
2023-05-14T03:49:07.548Z,101950.72
2023-05-14T03:51:34.301Z,101957.47
2023-05-14T03:54:01.712Z,101928.19
2023-05-14T03:56:28.254Z,101951.81
2023-05-14T03:58:54.813Z,101929.06
2023-05-14T04:01:21.390Z,101902.59
2023-05-14T04:03:48.003Z,101950.41
2023-05-14T04:06:14.718Z,101960.88
2023-05-14T04:08:41.283Z,101937.28
2023-05-14T04:11:08.498Z,101952.44
2023-05-14T04:13:35.408Z,101957.84
2023-05-14T04:16:02.120Z,101893.28
2023-05-14T04:18:28.796Z,101923.72
2023-05-14T04:20:55.441Z,101903.53
2023-05-14T04:23:22.115Z,101914.84
2023-05-14T04:25:49.073Z,101955.84
2023-05-14T04:28:15.733Z,101942.34
2023-05-14T04:30:42.299Z,101890.00
2023-05-14T04:33:08.942Z,101881.69
2023-05-14T04:35:35.620Z,101945.03
2023-05-14T04:38:02.188Z,101945.19
2023-05-14T04:40:28.783Z,101944.94
2023-05-14T04:42:55.303Z,101814.25
2023-05-14T04:45:21.846Z,101923.22
2023-05-14T04:47:48.589Z,101886.84
2023-05-14T04:50:15.505Z,101940.66
2023-05-14T04:52:42.123Z,101914.22
2023-05-14T04:55:09.300Z,101903.13
2023-05-14T04:57:35.918Z,101943.50
2023-05-14T05:00:02.715Z,101896.44
2023-05-14T05:02:29.323Z,101927.50
2023-05-14T05:04:56.325Z,101922.91
2023-05-14T05:07:23.022Z,101917.09
2023-05-14T05:09:49.945Z,101935.00
2023-05-14T05:12:16.592Z,101886.63
2023-05-14T05:14:43.231Z,101896.75
2023-05-14T05:17:10.156Z,101880.34
2023-05-14T05:19:43.879Z,101899.44
2023-05-14T05:22:11.453Z,101948.88
2023-05-14T05:24:38.104Z,101856.03
2023-05-14T05:27:05.739Z,101931.72
2023-05-14T05:29:32.423Z,101921.28
2023-05-14T05:31:59.342Z,101930.28
2023-05-14T05:34:25.947Z,101923.53
2023-05-14T05:36:52.513Z,101936.19
2023-05-14T05:39:19.263Z,101932.16
2023-05-14T05:41:45.845Z,101926.97
2023-05-14T05:44:12.533Z,101920.28
2023-05-14T05:46:39.207Z,101929.94
2023-05-14T05:49:05.884Z,101915.22
2023-05-14T05:51:33.209Z,101926.88
2023-05-14T05:53:59.847Z,101935.00
2023-05-14T05:56:26.543Z,101922.13
2023-05-14T05:58:53.167Z,101924.66
2023-05-14T06:01:19.798Z,101865.09
2023-05-14T06:03:48.345Z,101912.75
2023-05-14T06:06:15.777Z,101915.81
2023-05-14T06:08:42.438Z,101853.66
2023-05-14T06:11:09.229Z,101917.38
2023-05-14T06:13:35.824Z,101914.25
2023-05-14T06:16:02.479Z,101889.22
2023-05-14T06:18:29.201Z,101922.75
2023-05-14T06:20:56.917Z,101921.50
2023-05-14T06:23:23.669Z,101928.00
2023-05-14T06:25:51.009Z,101907.38
2023-05-14T06:28:17.664Z,101923.16
2023-05-14T06:30:44.369Z,101897.38
2023-05-14T06:33:13.112Z,101923.03
2023-05-14T06:35:39.841Z,101895.25
2023-05-14T06:38:06.640Z,101858.28
2023-05-14T06:40:33.280Z,101912.00
2023-05-14T06:43:00.180Z,101934.38
2023-05-14T06:45:26.882Z,101901.13
2023-05-14T06:47:53.693Z,101916.84
2023-05-14T06:50:20.492Z,101907.84
2023-05-14T06:52:47.084Z,101894.50
2023-05-14T06:55:13.777Z,101896.34
2023-05-14T06:57:40.950Z,101905.91
2023-05-14T07:00:08.694Z,101857.84
2023-05-14T07:02:35.618Z,101841.81
2023-05-14T07:05:03.247Z,101895.75
2023-05-14T07:07:29.919Z,101885.50
2023-05-14T07:09:56.474Z,101837.97
2023-05-14T07:12:23.033Z,101847.63
2023-05-14T07:14:50.195Z,101892.09
2023-05-14T07:17:16.903Z,101885.41
2023-05-14T07:19:43.703Z,101842.53
2023-05-14T07:22:10.395Z,101837.66
2023-05-14T07:24:37.026Z,101853.66
2023-05-14T07:27:03.907Z,101833.94
2023-05-14T07:29:30.990Z,101875.53
2023-05-14T07:31:57.592Z,101875.72
2023-05-14T07:34:24.251Z,101870.84
2023-05-14T07:36:50.833Z,101822.06
2023-05-14T07:39:17.471Z,101820.25
2023-05-14T07:41:44.447Z,101856.50
2023-05-14T07:44:11.055Z,101864.09
2023-05-14T07:46:37.618Z,101851.25
2023-05-14T07:49:04.327Z,101847.69
2023-05-14T07:51:31.879Z,101855.41
2023-05-14T07:53:58.547Z,101821.72
2023-05-14T07:56:25.247Z,101831.66
2023-05-14T07:58:51.936Z,101848.56
2023-05-14T08:01:18.648Z,101830.88
2023-05-14T08:03:45.930Z,101847.13
2023-05-14T08:06:12.712Z,101844.75
2023-05-14T08:08:39.610Z,101841.69
2023-05-14T08:11:06.565Z,101844.59
2023-05-14T08:13:33.171Z,101828.69
2023-05-14T08:15:59.886Z,101844.59
2023-05-14T08:18:26.499Z,101803.16
2023-05-14T08:20:53.313Z,101829.69
2023-05-14T08:23:20.169Z,101835.53
2023-05-14T08:25:46.826Z,101783.66
2023-05-14T08:28:13.399Z,101832.28
2023-05-14T08:30:40.057Z,101768.06
2023-05-14T08:33:06.693Z,101821.94
2023-05-14T08:35:33.451Z,101800.03
2023-05-14T08:38:00.061Z,101798.97
2023-05-14T08:40:27.402Z,101817.16
2023-05-14T08:42:56.008Z,101805.34
2023-05-14T08:45:29.103Z,101795.25
2023-05-14T08:47:56.676Z,101772.94
2023-05-14T08:50:24.022Z,101762.03
2023-05-14T08:52:51.286Z,101809.66
2023-05-14T08:55:18.287Z,101809.13
2023-05-14T08:57:44.859Z,101764.16
2023-05-14T09:00:12.188Z,101799.84
2023-05-14T09:02:41.150Z,101792.78
2023-05-14T09:05:09.445Z,101787.09
2023-05-14T09:07:36.201Z,101776.22
2023-05-14T09:10:04.079Z,101765.88
2023-05-14T09:12:31.395Z,101755.69
2023-05-14T09:14:58.024Z,101768.81
2023-05-14T09:17:27.366Z,101786.91
2023-05-14T09:19:54.287Z,101771.13
2023-05-14T09:22:21.558Z,101758.47
2023-05-14T09:25:02.907Z,101776.56
2023-05-14T09:27:31.509Z,101784.41
2023-05-14T09:30:08.225Z,101762.22
2023-05-14T09:32:44.236Z,101745.22
2023-05-14T09:35:21.632Z,101751.41
2023-05-14T09:37:51.242Z,101754.44
2023-05-14T09:40:20.122Z,101769.09
2023-05-14T09:42:46.851Z,101748.00
2023-05-14T09:45:13.530Z,101748.50
2023-05-14T09:47:40.256Z,101769.88
2023-05-14T09:50:07.745Z,101757.03
2023-05-14T09:52:35.218Z,101756.41
2023-05-14T09:55:02.352Z,101709.38
2023-05-14T09:57:31.139Z,101744.34
2023-05-14T09:59:57.774Z,101751.63
2023-05-14T10:02:37.638Z,101702.78
2023-05-14T10:05:06.533Z,101749.25
2023-05-14T10:08:02.299Z,101722.97
2023-05-14T10:10:30.292Z,101716.94
2023-05-14T10:13:01.579Z,101716.22
2023-05-14T10:15:34.903Z,101687.78
2023-05-14T10:18:07.376Z,101739.88
2023-05-14T10:20:34.967Z,101714.91
2023-05-14T10:23:01.980Z,101735.50
2023-05-14T10:25:29.199Z,101731.94
2023-05-14T10:27:56.460Z,101698.09
2023-05-14T10:30:24.136Z,101702.06
2023-05-14T10:33:06.728Z,101729.28
2023-05-14T10:35:52.202Z,101709.06
2023-05-14T10:38:23.341Z,101712.66
2023-05-14T10:40:51.590Z,101699.91
2023-05-14T10:43:20.269Z,101717.63
2023-05-14T10:45:47.173Z,101720.34
2023-05-14T10:48:14.473Z,101707.69
2023-05-14T10:50:42.154Z,101687.22
2023-05-14T10:53:12.980Z,101707.19
2023-05-14T10:55:39.823Z,101703.19
2023-05-14T10:58:06.463Z,101694.59
2023-05-14T11:00:36.749Z,101696.00
2023-05-14T11:03:07.342Z,101673.91
2023-05-14T11:05:37.388Z,101664.78
2023-05-14T11:08:08.070Z,101689.13
2023-05-14T11:10:35.735Z,101680.44
2023-05-14T11:13:02.767Z,101638.31
2023-05-14T11:15:29.588Z,101690.91
2023-05-14T11:17:56.235Z,101672.19
2023-05-14T11:20:23.197Z,101680.78
2023-05-14T11:22:53.144Z,101673.88
2023-05-14T11:25:20.531Z,101680.25
2023-05-14T11:27:48.205Z,101685.69
2023-05-14T11:30:17.028Z,101667.16
2023-05-14T11:32:48.727Z,101663.06
2023-05-14T11:35:16.288Z,101676.44
2023-05-14T11:37:44.030Z,101679.91
2023-05-14T11:40:16.720Z,101673.31
2023-05-14T11:42:43.528Z,101658.31
2023-05-14T11:45:14.173Z,101654.78
2023-05-14T11:47:42.220Z,101645.22
2023-05-14T11:50:21.010Z,101660.28
2023-05-14T11:52:50.716Z,101661.06
2023-05-14T11:55:17.990Z,101658.31
2023-05-14T11:57:44.873Z,101645.31
2023-05-14T12:00:21.316Z,101657.06
2023-05-14T12:02:49.639Z,101654.97
2023-05-14T12:05:16.475Z,101656.69
2023-05-14T12:07:46.262Z,101636.94
2023-05-14T12:10:14.013Z,101634.84
2023-05-14T12:12:40.676Z,101619.06
2023-05-14T12:15:15.348Z,101630.16
2023-05-14T12:17:42.424Z,101628.00
2023-05-14T12:20:13.016Z,101618.56
2023-05-14T12:22:42.236Z,101619.41
2023-05-14T12:25:16.065Z,101606.22
2023-05-14T12:27:45.029Z,101622.34
2023-05-14T12:30:27.481Z,101618.66
2023-05-14T12:32:54.191Z,101582.75
2023-05-14T12:35:21.639Z,101604.38
2023-05-14T12:37:48.356Z,101613.25
2023-05-14T12:40:15.117Z,101576.53
2023-05-14T12:42:41.716Z,101598.81
2023-05-14T12:45:08.831Z,101595.81
2023-05-14T12:47:36.565Z,101596.97
2023-05-14T12:50:03.851Z,101572.63
2023-05-14T12:52:37.445Z,101597.66
2023-05-14T12:55:11.994Z,101576.00
2023-05-14T12:57:40.850Z,101574.09
2023-05-14T13:00:13.731Z,101572.28
2023-05-14T13:02:42.075Z,101561.25
2023-05-14T13:05:09.890Z,101530.81
2023-05-14T13:07:36.730Z,101563.63
2023-05-14T13:10:06.038Z,101556.13
2023-05-14T13:12:32.956Z,101549.50
2023-05-14T13:14:59.713Z,101548.97
2023-05-14T13:17:26.842Z,101542.56
2023-05-14T13:19:53.647Z,101480.44
2023-05-14T13:22:20.280Z,101544.22
2023-05-14T13:24:46.938Z,101571.59
2023-05-14T13:27:13.530Z,101499.25
2023-05-14T13:29:40.117Z,101562.38
2023-05-14T13:32:07.079Z,101569.63
2023-05-14T13:34:34.065Z,101549.97
2023-05-14T13:37:05.546Z,101573.31
2023-05-14T13:39:35.951Z,101487.25
2023-05-14T13:42:02.692Z,101577.97
2023-05-14T13:44:29.655Z,101587.97
2023-05-14T13:46:56.378Z,101575.31
2023-05-14T13:49:23.055Z,101544.47
2023-05-14T13:51:49.715Z,101555.09
2023-05-14T13:54:16.334Z,101558.81
2023-05-14T13:56:42.960Z,101548.81
2023-05-14T13:59:09.559Z,101550.47
2023-05-14T14:01:36.304Z,101553.38
2023-05-14T14:04:03.508Z,101488.16
2023-05-14T14:06:32.575Z,101512.81
2023-05-14T14:08:59.160Z,101542.41
2023-05-14T14:11:26.295Z,101514.06
2023-05-14T14:13:53.388Z,101421.66
2023-05-14T14:16:20.174Z,101504.13
2023-05-14T14:18:46.819Z,101525.19
2023-05-14T14:21:18.264Z,101488.63
2023-05-14T14:23:48.634Z,101447.03
2023-05-14T14:26:15.268Z,101504.97
2023-05-14T14:28:41.819Z,101502.31
2023-05-14T14:31:08.450Z,101505.03
2023-05-14T14:33:35.114Z,101505.22
2023-05-14T14:36:02.035Z,101478.91
2023-05-14T14:38:28.633Z,101489.78
2023-05-14T14:40:55.408Z,101494.84
2023-05-14T14:43:22.076Z,101495.53
2023-05-14T14:45:49.171Z,101495.25
2023-05-14T14:48:25.456Z,101484.41
2023-05-14T14:50:52.767Z,101436.66
2023-05-14T14:53:20.543Z,101440.03
2023-05-14T14:55:48.792Z,101481.66
2023-05-14T14:58:15.776Z,101474.56
2023-05-14T15:00:42.484Z,101484.28
2023-05-14T15:03:10.189Z,101445.84
2023-05-14T15:05:36.893Z,101469.38
2023-05-14T15:08:04.247Z,101480.06
2023-05-14T15:10:31.648Z,101461.06
2023-05-14T15:12:59.485Z,101469.94
2023-05-14T15:15:26.551Z,101477.63
2023-05-14T15:17:53.226Z,101467.25
2023-05-14T15:20:19.961Z,101462.22
2023-05-14T15:22:46.736Z,101450.34
2023-05-14T15:25:16.359Z,101442.84
2023-05-14T15:27:42.980Z,101454.63
2023-05-14T15:30:10.010Z,101448.13
2023-05-14T15:32:36.676Z,101435.19
2023-05-14T15:35:03.704Z,101431.56
2023-05-14T15:37:41.187Z,101435.84
2023-05-14T15:40:09.200Z,101437.81
2023-05-14T15:42:45.111Z,101430.53
2023-05-14T15:45:14.877Z,101425.31
2023-05-14T15:47:41.894Z,101423.91
2023-05-14T15:50:09.524Z,101421.56
2023-05-14T15:52:36.660Z,101418.34
2023-05-14T15:55:05.366Z,101413.59
2023-05-14T15:57:32.098Z,101418.31
2023-05-14T15:59:58.717Z,101408.13
2023-05-14T16:02:25.613Z,101409.50
2023-05-14T16:04:52.425Z,101367.13
2023-05-14T16:07:19.141Z,101388.59
2023-05-14T16:09:45.912Z,101413.19
2023-05-14T16:12:12.608Z,101368.56
2023-05-14T16:14:41.767Z,101388.97
2023-05-14T16:17:08.806Z,101396.19
2023-05-14T16:19:35.445Z,101405.69
2023-05-14T16:22:02.405Z,101361.44
2023-05-14T16:24:28.981Z,101323.47
2023-05-14T16:26:56.210Z,101414.94
2023-05-14T16:29:22.992Z,101380.31
2023-05-14T16:31:49.880Z,101350.41
2023-05-14T16:34:16.713Z,101422.75
2023-05-14T16:36:43.420Z,101402.56
2023-05-14T16:39:10.028Z,101417.47
2023-05-14T16:41:36.609Z,101346.44
2023-05-14T16:44:03.655Z,101418.31
2023-05-14T16:46:31.358Z,101303.44
2023-05-14T16:48:58.048Z,101417.03
2023-05-14T16:51:24.635Z,101418.28
2023-05-14T16:53:52.048Z,101376.59
2023-05-14T16:56:19.148Z,101411.81
2023-05-14T16:58:45.839Z,101413.06
2023-05-14T17:01:12.543Z,101370.88
2023-05-14T17:03:39.177Z,101390.22
2023-05-14T17:06:06.239Z,101375.81
2023-05-14T17:08:33.781Z,101415.06
2023-05-14T17:11:00.595Z,101414.84
2023-05-14T17:13:27.145Z,101408.47
2023-05-14T17:15:53.932Z,101400.25
2023-05-14T17:18:20.566Z,101364.22
2023-05-14T17:20:47.140Z,101408.16
2023-05-14T17:23:13.861Z,101335.91
2023-05-14T17:25:40.716Z,101372.16
2023-05-14T17:28:07.313Z,101411.78
2023-05-14T17:30:34.022Z,101421.81
2023-05-14T17:33:00.712Z,101410.75
2023-05-14T17:35:27.719Z,101345.50
2023-05-14T17:37:54.349Z,101409.53
2023-05-14T17:40:20.984Z,101417.47
2023-05-14T17:42:47.721Z,101362.88
2023-05-14T17:45:15.609Z,101396.56
2023-05-14T17:47:42.518Z,101402.53
2023-05-14T17:50:09.393Z,101417.16
2023-05-14T17:52:36.122Z,101416.66
2023-05-14T17:55:02.751Z,101406.75
2023-05-14T17:57:29.521Z,101408.63
2023-05-14T17:59:56.193Z,101374.72
2023-05-14T18:02:22.746Z,101407.75
2023-05-14T18:04:49.357Z,101408.63
2023-05-14T18:07:16.526Z,101404.06
2023-05-14T18:09:43.232Z,101408.47
2023-05-14T18:12:10.038Z,101370.44
2023-05-14T18:14:36.597Z,101413.34
2023-05-14T18:17:03.433Z,101397.47
2023-05-14T18:19:30.117Z,101414.56
2023-05-14T18:21:56.673Z,101412.75
2023-05-14T18:24:23.291Z,101417.75
2023-05-14T18:26:49.915Z,101369.09
2023-05-14T18:29:16.488Z,101420.94
2023-05-14T18:31:43.056Z,101420.94
2023-05-14T18:34:09.690Z,101402.13
2023-05-14T18:36:36.302Z,101370.00
2023-05-14T18:39:03.041Z,101437.19
2023-05-14T18:41:29.606Z,101432.44
2023-05-14T18:43:58.126Z,101431.03
2023-05-14T18:46:25.053Z,101425.44
2023-05-14T18:48:51.766Z,101427.00
2023-05-14T18:51:18.362Z,101421.34
2023-05-14T18:53:44.921Z,101444.63
2023-05-14T18:56:11.514Z,101441.59
2023-05-14T18:58:38.276Z,101422.66
2023-05-14T19:01:04.990Z,101429.34
2023-05-14T19:03:31.842Z,101401.84
2023-05-14T19:05:58.735Z,101432.59
2023-05-14T19:08:25.810Z,101431.06
2023-05-14T19:10:53.170Z,101434.81
2023-05-14T19:13:19.809Z,101421.97
2023-05-14T19:15:46.595Z,101440.41
2023-05-14T19:18:14.051Z,101437.31
2023-05-14T19:20:40.689Z,101438.50
2023-05-14T19:23:07.308Z,101433.56
2023-05-14T19:25:34.257Z,101447.72
2023-05-14T19:28:03.766Z,101440.34
2023-05-14T19:30:30.833Z,101391.44
2023-05-14T19:32:57.443Z,101395.19
2023-05-14T19:35:24.283Z,101415.38
2023-05-14T19:37:51.195Z,101442.16
2023-05-14T19:40:17.904Z,101435.63
2023-05-14T19:42:44.433Z,101444.16
2023-05-14T19:45:11.378Z,101432.81
2023-05-14T19:47:38.097Z,101441.38
2023-05-14T19:50:05.235Z,101453.13
2023-05-14T19:52:31.839Z,101446.81
2023-05-14T19:54:58.413Z,101446.59
2023-05-14T19:57:24.971Z,101401.19
2023-05-14T19:59:51.552Z,101443.59
2023-05-14T20:02:18.662Z,101440.53
2023-05-14T20:04:46.271Z,101437.94
2023-05-14T20:07:15.769Z,101441.50
2023-05-14T20:09:42.552Z,101433.72
2023-05-14T20:12:09.637Z,101436.09
2023-05-14T20:14:36.394Z,101412.69
2023-05-14T20:17:03.278Z,101436.56
2023-05-14T20:19:29.935Z,101436.00
2023-05-14T20:21:56.919Z,101403.06
2023-05-14T20:24:23.560Z,101437.13
2023-05-14T20:26:50.431Z,101442.72
2023-05-14T20:29:17.016Z,101437.03
2023-05-14T20:31:43.646Z,101441.63
2023-05-14T20:34:10.242Z,101427.00
2023-05-14T20:36:37.670Z,101428.91
2023-05-14T20:39:06.272Z,101420.94
2023-05-14T20:41:32.954Z,101383.31
2023-05-14T20:43:59.577Z,101426.03
2023-05-14T20:46:26.328Z,101420.41
2023-05-14T20:48:57.228Z,101423.69
2023-05-14T20:51:23.824Z,101418.16
2023-05-14T20:53:50.409Z,101409.22
2023-05-14T20:56:16.984Z,101417.06
2023-05-14T21:01:24.076Z,101240.78
2023-05-14T21:03:50.960Z,101408.69
2023-05-14T21:06:17.688Z,101410.16
2023-05-14T21:08:44.430Z,101386.59
2023-05-14T21:11:11.077Z,101395.22
2023-05-14T21:13:37.633Z,101404.66
2023-05-14T21:16:04.501Z,101393.97
2023-05-14T21:18:33.162Z,101401.50
2023-05-14T21:20:59.756Z,101383.41
2023-05-14T21:23:26.346Z,101367.06
2023-05-14T21:25:54.867Z,101380.44
2023-05-14T21:28:22.394Z,101383.22
2023-05-14T21:30:50.750Z,101379.34
2023-05-14T21:33:18.082Z,101325.75
2023-05-14T21:35:44.754Z,101357.31
2023-05-14T21:38:11.882Z,101389.69
2023-05-14T21:40:38.477Z,101377.72
2023-05-14T21:43:05.062Z,101385.63
2023-05-14T21:45:31.765Z,101314.88
2023-05-14T21:47:58.581Z,101376.63
2023-05-14T21:50:25.306Z,101371.22
2023-05-14T21:52:51.848Z,101380.56
2023-05-14T21:55:18.393Z,101375.13
2023-05-14T21:57:45.530Z,101327.97
2023-05-14T22:00:13.505Z,101373.88
2023-05-14T22:02:40.167Z,101339.84
2023-05-14T22:05:07.063Z,101360.81
2023-05-14T22:07:33.896Z,101333.47
2023-05-14T22:10:00.479Z,101305.50
2023-05-14T22:12:27.314Z,101362.59
2023-05-14T22:14:53.896Z,101370.59
2023-05-14T22:17:20.550Z,101346.06
2023-05-14T22:19:47.098Z,101317.50
2023-05-14T22:22:13.720Z,101370.59
2023-05-14T22:24:40.274Z,101368.88
2023-05-14T22:27:07.037Z,101332.63
2023-05-14T22:29:33.717Z,101361.00
2023-05-14T22:32:00.462Z,101298.63
2023-05-14T22:34:27.123Z,101350.69
2023-05-14T22:36:53.721Z,101358.13
2023-05-14T22:39:20.350Z,101357.84
2023-05-14T22:41:46.958Z,101361.69
2023-05-14T22:44:14.386Z,101292.19
2023-05-14T22:46:41.066Z,101353.72
2023-05-14T22:49:07.633Z,101346.47
2023-05-14T22:51:34.207Z,101338.50
2023-05-14T22:54:00.800Z,101337.50
2023-05-14T22:56:28.244Z,101349.50
2023-05-14T22:58:54.848Z,101345.91
2023-05-14T23:01:21.440Z,101330.50
2023-05-14T23:03:48.056Z,101212.84
2023-05-14T23:06:15.020Z,101302.00
2023-05-14T23:08:41.666Z,101332.22
2023-05-14T23:11:08.355Z,101070.94
2023-05-14T23:13:34.953Z,101325.72
2023-05-14T23:16:01.897Z,101276.75
2023-05-14T23:18:28.699Z,101327.84
2023-05-14T23:20:55.450Z,101250.91
2023-05-14T23:23:22.239Z,101324.28
2023-05-14T23:25:50.326Z,101280.72
2023-05-14T23:28:17.468Z,101311.97
2023-05-14T23:30:44.139Z,101318.25
2023-05-14T23:33:10.826Z,101318.53
2023-05-14T23:35:38.611Z,101316.97
2023-05-14T23:38:05.922Z,101318.38
2023-05-14T23:40:33.169Z,101269.94
2023-05-14T23:43:00.683Z,101305.91
2023-05-14T23:45:28.183Z,101301.81
2023-05-14T23:47:57.281Z,101304.94
2023-05-14T23:50:24.392Z,101248.94
2023-05-14T23:52:52.606Z,101303.63
2023-05-14T23:55:19.866Z,101300.75
2023-05-14T23:57:49.431Z,101302.72
